Time;durP1;ratioP1;P1;durP2;ratioP2;P2;SDS_P1;SDS_P2;PMS_P1;PMS_P2;Temp;Humidity;BMP_temperature;BMP_pressure;BME280_temperature;BME280_humidity;BME280_pressure;Samples;Min_cycle;Max_cycle;Signal;HPM_P1;HPM_P2
2021/07/30 00:02:03;;;;;;;;;8.00;7.00;;;;;19.88;55.49;100983.66;4921969;28;45362;-78
2021/07/30 00:04:28;;;;;;;;;10.25;8.25;;;;;19.83;55.31;100985.81;4922468;28;45327;-77
2021/07/30 00:06:53;;;;;;;;;9.25;8.25;;;;;19.79;55.82;100972.69;4921276;28;45462;-77
2021/07/30 00:09:19;;;;;;;;;6.00;4.75;;;;;19.81;55.45;100971.72;4922018;28;45483;-77
2021/07/30 00:11:44;;;;;;;;;7.25;7.00;;;;;19.73;56.19;100972.25;4926157;28;46419;-79
2021/07/30 00:14:11;;;;;;;;;8.75;7.75;;;;;19.65;56.00;100962.97;4905234;28;45981;-79
2021/07/30 00:16:37;;;;;;;;;8.00;8.00;;;;;19.58;55.96;100974.16;4921875;28;45315;-77
2021/07/30 00:19:02;;;;;;;;;6.00;5.25;;;;;19.52;56.72;100970.94;4902598;28;46112;-77
2021/07/30 00:21:28;;;;;;;;;10.25;7.50;;;;;19.46;56.74;100968.69;4922063;28;45445;-77
2021/07/30 00:23:53;;;;;;;;;6.25;6.25;;;;;19.47;56.35;100970.41;4905152;28;45229;-77
2021/07/30 00:26:18;;;;;;;;;5.75;5.75;;;;;19.46;56.90;100968.69;4922440;28;45662;-77
2021/07/30 00:28:44;;;;;;;;;9.25;6.25;;;;;19.41;57.30;100966.31;4922084;28;45201;-77
2021/07/30 00:31:09;;;;;;;;;10.25;8.00;;;;;19.36;57.17;100963.13;4921693;28;45319;-80
2021/07/30 00:33:35;;;;;;;;;7.00;7.00;;;;;19.33;57.26;100953.50;4904626;28;45179;-79
2021/07/30 00:36:01;;;;;;;;;8.00;7.00;;;;;19.34;57.27;100957.91;4934386;28;45227;-78
2021/07/30 00:38:26;;;;;;;;;8.00;6.75;;;;;19.35;57.39;100953.44;4921973;28;45247;-76
2021/07/30 00:40:51;;;;;;;;;6.00;5.50;;;;;19.36;57.65;100956.94;4904575;28;47555;-75
2021/07/30 00:43:17;;;;;;;;;8.75;5.75;;;;;19.36;57.39;100951.63;4921588;28;45459;-75
2021/07/30 00:45:42;;;;;;;;;5.50;5.50;;;;;19.40;57.64;100945.13;4921966;28;45337;-77
2021/07/30 00:48:08;;;;;;;;;8.25;8.25;;;;;19.40;57.38;100940.66;4921650;28;45400;-75
2021/07/30 00:50:34;;;;;;;;;8.50;7.00;;;;;19.43;57.71;100945.75;4922068;28;45904;-75
2021/07/30 00:53:00;;;;;;;;;6.50;6.50;;;;;19.40;57.91;100945.13;4921629;28;45445;-76
2021/07/30 00:55:25;;;;;;;;;7.00;7.00;;;;;19.41;57.10;100952.16;4922205;28;45435;-75
2021/07/30 00:57:52;;;;;;;;;8.00;7.00;;;;;19.39;57.62;100946.94;4922792;28;45284;-77
2021/07/30 01:00:19;;;;;;;;;6.50;6.50;;;;;19.39;57.70;100936.25;4925085;28;46525;-75
2021/07/30 01:02:45;;;;;;;;;11.25;7.25;;;;;19.39;57.57;100938.06;4924605;28;46713;-77
2021/07/30 01:05:11;;;;;;;;;9.75;7.25;;;;;19.37;57.79;100937.31;4925220;28;45592;-76
2021/07/30 01:07:36;;;;;;;;;9.00;9.00;;;;;19.35;57.52;100932.09;4925183;28;45451;-76
2021/07/30 01:10:02;;;;;;;;;9.25;7.75;;;;;19.33;58.31;100937.53;4924452;28;45628;-76
2021/07/30 01:12:28;;;;;;;;;5.00;4.50;;;;;19.32;58.13;100935.84;4923424;28;46263;-76
2021/07/30 01:14:54;;;;;;;;;7.75;7.00;;;;;19.29;58.04;100928.03;4925017;28;45519;-76
2021/07/30 01:17:21;;;;;;;;;8.00;6.75;;;;;19.31;57.88;100934.13;4924774;28;45409;-77
2021/07/30 01:19:46;;;;;;;;;8.50;6.00;;;;;19.32;58.09;100927.84;4924662;28;45317;-76
2021/07/30 01:22:23;;;;;;;;;7.75;6.25;;;;;19.30;58.07;100935.09;4924720;28;45303;-80
2021/07/30 01:24:52;;;;;;;;;9.00;7.00;;;;;19.26;57.87;100930.06;4925068;28;45221;-75
2021/07/30 01:27:18;;;;;;;;;8.75;7.00;;;;;19.25;58.07;100931.88;4924970;28;45513;-77
2021/07/30 01:29:44;;;;;;;;;6.00;6.00;;;;;19.26;58.17;100933.56;4924343;28;45593;-75
2021/07/30 01:32:09;;;;;;;;;6.75;6.50;;;;;19.26;57.87;100925.56;4923929;28;45332;-76
2021/07/30 01:34:35;;;;;;;;;6.25;5.25;;;;;19.28;58.15;100926.34;4917885;28;45736;-76
2021/07/30 01:37:00;;;;;;;;;7.25;5.25;;;;;19.29;58.09;100922.72;4924299;28;45371;-76
2021/07/30 01:39:25;;;;;;;;;8.25;7.00;;;;;19.30;58.03;100910.25;4924591;28;45255;-78
2021/07/30 01:41:51;;;;;;;;;6.25;6.00;;;;;19.33;58.55;100913.53;4916564;28;45324;-76
2021/07/30 01:44:16;;;;;;;;;6.25;6.00;;;;;19.36;58.41;100915.16;4907448;28;45383;-77
2021/07/30 01:46:42;;;;;;;;;9.00;6.00;;;;;19.38;57.99;100907.94;4924479;28;45416;-76
2021/07/30 01:49:07;;;;;;;;;6.25;6.25;;;;;19.40;58.20;100914.00;4924647;28;45431;-75
2021/07/30 01:51:32;;;;;;;;;7.00;6.00;;;;;19.40;58.17;100902.47;4906798;28;45333;-76
2021/07/30 01:53:57;;;;;;;;;6.75;6.00;;;;;19.42;58.55;100905.88;4924503;28;45248;-79
2021/07/30 01:56:23;;;;;;;;;7.75;7.00;;;;;19.45;58.29;100897.69;4924477;28;45265;-76
2021/07/30 01:58:48;;;;;;;;;6.00;6.00;;;;;19.47;57.81;100911.75;4920415;28;45294;-77
2021/07/30 02:01:13;;;;;;;;;9.25;6.75;;;;;19.49;58.36;100915.16;4921273;28;45270;-77
2021/07/30 02:03:39;;;;;;;;;7.75;7.25;;;;;19.49;57.95;100915.16;4923615;28;45149;-77
2021/07/30 02:06:08;;;;;;;;;8.25;6.50;;;;;19.52;57.74;100909.63;4924345;28;45557;-76
2021/07/30 02:08:37;;;;;;;;;5.50;5.50;;;;;19.54;58.07;100909.53;4922921;28;45426;-77
2021/07/30 02:11:10;;;;;;;;;6.50;5.75;;;;;19.55;57.71;100908.56;4924066;28;45362;-77
2021/07/30 02:16:19;;;;;;;;;8.00;5.25;;;;;19.45;57.61;100903.88;4923415;28;45434;-78
2021/07/30 02:18:44;;;;;;;;;8.25;5.25;;;;;19.37;58.55;100903.53;4923593;28;46244;-76
2021/07/30 02:21:09;;;;;;;;;8.00;7.75;;;;;19.26;57.73;100898.09;4919314;28;45312;-76
2021/07/30 02:23:35;;;;;;;;;8.25;8.25;;;;;19.12;58.78;100891.84;4923766;28;45316;-75
2021/07/30 02:26:01;;;;;;;;;8.50;8.00;;;;;19.06;58.44;100895.75;4924121;28;45444;-75
2021/07/30 02:28:26;;;;;;;;;7.75;6.00;;;;;18.98;58.81;100890.09;4924008;28;45566;-76
2021/07/30 02:30:51;;;;;;;;;10.50;8.00;;;;;18.93;59.27;100897.56;4923923;28;45403;-79
2021/07/30 02:33:17;;;;;;;;;8.00;8.00;;;;;18.85;59.09;100888.25;4906089;28;45463;-79
2021/07/30 02:35:42;;;;;;;;;8.00;6.50;;;;;18.78;59.87;100894.94;4923687;28;45539;-79
2021/07/30 02:38:07;;;;;;;;;7.75;7.25;;;;;18.70;59.44;100887.44;4919651;28;45241;-79
2021/07/30 02:40:34;;;;;;;;;10.50;6.75;;;;;18.72;59.30;100898.84;4918896;28;45329;-79
2021/07/30 02:43:00;;;;;;;;;6.25;5.75;;;;;18.71;60.09;100897.16;4924095;28;45211;-78
2021/07/30 02:45:25;;;;;;;;;10.25;7.25;;;;;18.69;59.91;100891.09;4922689;28;45420;-79
2021/07/30 02:47:50;;;;;;;;;7.50;6.75;;;;;18.73;60.04;100889.06;4927876;28;48033;-78
2021/07/30 02:50:16;;;;;;;;;9.25;8.50;;;;;18.74;60.05;100883.63;4923582;28;45237;-78
2021/07/30 02:52:41;;;;;;;;;9.25;8.00;;;;;18.71;60.38;100883.00;4922340;28;45180;-77
2021/07/30 02:55:07;;;;;;;;;8.50;7.00;;;;;18.66;60.14;100880.63;4923586;28;45382;-78
2021/07/30 02:57:33;;;;;;;;;10.25;8.75;;;;;18.61;60.45;100880.06;4922939;28;46211;-78
2021/07/30 02:59:58;;;;;;;;;8.50;8.50;;;;;18.56;60.18;100877.72;4922870;28;45450;-79
2021/07/30 03:02:23;;;;;;;;;12.00;11.00;;;;;18.60;60.13;100871.22;4923386;28;45334;-76
2021/07/30 03:04:49;;;;;;;;;11.25;9.00;;;;;18.64;60.76;100871.91;4923341;28;45393;-76
2021/07/30 03:07:14;;;;;;;;;12.50;10.25;;;;;18.70;60.84;100871.47;4923228;28;46537;-75
2021/07/30 03:09:39;;;;;;;;;11.75;10.25;;;;;18.73;60.26;100865.09;4922779;28;45320;-75
2021/07/30 03:12:05;;;;;;;;;7.00;6.00;;;;;18.79;60.20;100864.72;4926861;28;45304;-75
2021/07/30 03:14:30;;;;;;;;;11.50;8.00;;;;;18.85;60.17;100861.63;4915231;28;45339;-75
2021/07/30 03:16:56;;;;;;;;;8.50;8.25;;;;;18.89;60.47;100860.47;4917158;28;45433;-75
2021/07/30 03:19:21;;;;;;;;;10.50;8.25;;;;;18.93;60.51;100857.59;4921161;28;45372;-76
2021/07/30 03:21:46;;;;;;;;;9.00;8.00;;;;;18.92;60.07;100861.22;4922817;28;45309;-75
2021/07/30 03:24:12;;;;;;;;;8.00;7.75;;;;;18.92;60.32;100855.88;4923012;28;46983;-81
2021/07/30 03:26:37;;;;;;;;;10.25;9.75;;;;;18.86;60.72;100851.84;4921080;28;47131;-78
2021/07/30 03:29:06;;;;;;;;;10.00;8.25;;;;;18.83;60.39;100852.91;4906025;28;45507;-75
2021/07/30 03:31:31;;;;;;;;;10.25;9.75;;;;;18.83;60.79;100852.91;4922906;28;45447;-76
2021/07/30 03:33:56;;;;;;;;;11.75;10.50;;;;;18.83;60.38;100855.56;4905567;28;47096;-76
2021/07/30 03:36:22;;;;;;;;;8.25;8.00;;;;;18.83;60.95;100846.72;4922546;28;46435;-76
2021/07/30 03:38:48;;;;;;;;;10.75;9.75;;;;;18.92;60.19;100850.56;4921650;28;45296;-75
2021/07/30 03:41:14;;;;;;;;;7.00;6.75;;;;;19.01;60.54;100865.94;4922761;28;45331;-78
2021/07/30 03:43:39;;;;;;;;;7.00;5.75;;;;;19.08;59.83;100859.25;4922592;28;45340;-75
2021/07/30 03:46:04;;;;;;;;;7.25;6.75;;;;;19.15;59.85;100856.16;4922534;28;45650;-76
2021/07/30 03:48:31;;;;;;;;;9.25;7.75;;;;;19.19;60.05;100852.34;4922408;28;45406;-78
2021/07/30 03:50:57;;;;;;;;;9.25;6.00;;;;;19.19;59.77;100861.19;4907155;28;45466;-75
2021/07/30 03:53:22;;;;;;;;;9.50;7.25;;;;;19.21;59.63;100853.94;4922501;28;45327;-76
2021/07/30 03:55:47;;;;;;;;;10.00;8.50;;;;;19.24;59.72;100852.88;4905101;28;47983;-77
2021/07/30 03:58:13;;;;;;;;;8.00;7.75;;;;;19.27;59.73;100850.03;4921170;28;45996;-77
2021/07/30 04:00:38;;;;;;;;;7.25;7.25;;;;;19.33;59.50;100851.41;4922685;28;45288;-75
2021/07/30 04:03:04;;;;;;;;;11.00;8.00;;;;;19.41;59.20;100845.56;4922390;28;45213;-73
2021/07/30 04:05:29;;;;;;;;;6.00;6.00;;;;;19.48;59.21;100843.31;4918759;28;46482;-76
2021/07/30 04:07:55;;;;;;;;;6.75;6.75;;;;;19.50;58.67;100844.94;4915137;28;45153;-76
2021/07/30 04:10:21;;;;;;;;;10.50;7.25;;;;;19.56;58.91;100846.28;4922492;28;45236;-75
2021/07/30 04:12:46;;;;;;;;;13.00;10.00;;;;;19.55;59.02;100850.78;4922358;28;45219;-76
2021/07/30 04:15:11;;;;;;;;;7.00;6.50;;;;;19.55;58.53;100856.13;4914440;28;46264;-75
2021/07/30 04:17:37;;;;;;;;;5.25;5.00;;;;;19.61;58.56;100856.63;4914299;28;45202;-75
2021/07/30 04:20:02;;;;;;;;;9.50;7.50;;;;;19.61;58.87;100853.97;4918204;28;45412;-78
2021/07/30 04:22:28;;;;;;;;;9.00;8.00;;;;;19.58;58.55;100859.53;4921001;28;45221;-77
2021/07/30 04:24:54;;;;;;;;;9.50;6.50;;;;;19.60;58.40;100858.47;4922168;28;46217;-75
2021/07/30 04:27:19;;;;;;;;;9.25;8.00;;;;;19.58;58.35;100846.19;4904847;28;45465;-77
2021/07/30 04:29:44;;;;;;;;;9.25;7.00;;;;;19.59;58.13;100855.88;4922118;28;45624;-80
2021/07/30 04:32:11;;;;;;;;;8.75;8.00;;;;;19.60;58.49;100849.59;4913735;28;45542;-79
2021/07/30 04:34:37;;;;;;;;;6.00;6.00;;;;;19.60;58.01;100853.13;4922187;28;46393;-80
2021/07/30 04:37:03;;;;;;;;;12.50;9.00;;;;;19.56;58.16;100860.47;4921983;28;45426;-77
2021/07/30 04:39:28;;;;;;;;;8.25;7.50;;;;;19.52;58.45;100859.00;4922106;28;45424;-77
2021/07/30 04:41:54;;;;;;;;;7.25;7.25;;;;;19.49;58.23;100861.88;4920325;28;45188;-76
2021/07/30 04:44:20;;;;;;;;;5.25;5.25;;;;;19.48;58.74;100848.66;4921215;28;46546;-75
2021/07/30 04:46:46;;;;;;;;;6.75;5.50;;;;;19.47;58.83;100853.13;4921716;28;45330;-75
2021/07/30 04:49:11;;;;;;;;;6.50;6.50;;;;;19.47;58.34;100858.47;4910349;28;45283;-75
2021/07/30 04:51:36;;;;;;;;;7.25;7.00;;;;;19.47;58.51;100863.78;4921243;28;45160;-73
2021/07/30 04:54:01;;;;;;;;;6.75;5.75;;;;;19.48;58.13;100867.31;4921913;28;45291;-72
2021/07/30 04:56:27;;;;;;;;;7.25;6.25;;;;;19.47;58.22;100860.25;4921823;28;45354;-73
2021/07/30 04:58:52;;;;;;;;;5.25;5.25;;;;;19.44;58.21;100858.66;4917337;28;45390;-72
2021/07/30 05:01:17;;;;;;;;;7.75;7.75;;;;;19.42;58.18;100860.59;4920661;28;45189;-72
2021/07/30 05:03:43;;;;;;;;;5.25;5.25;;;;;19.45;58.84;100863.91;4928536;28;45332;-72
2021/07/30 05:06:12;;;;;;;;;5.75;5.75;;;;;19.45;58.22;100871.03;4933204;28;45351;-72
2021/07/30 05:08:37;;;;;;;;;7.00;5.50;;;;;19.41;58.43;100861.56;4921516;28;45480;-72
2021/07/30 05:11:02;;;;;;;;;6.75;6.75;;;;;19.42;58.51;100860.59;4921699;28;45256;-72
2021/07/30 05:13:27;;;;;;;;;8.50;7.00;;;;;19.41;58.47;100854.38;4921754;28;45406;-72
2021/07/30 05:15:53;;;;;;;;;8.50;6.50;;;;;19.42;58.63;100855.25;4920833;28;45447;-72
2021/07/30 05:18:18;;;;;;;;;6.00;5.50;;;;;19.45;58.23;100860.38;4921134;28;45282;-72
2021/07/30 05:20:43;;;;;;;;;7.75;7.00;;;;;19.45;58.66;100855.03;4933474;28;46738;-72
2021/07/30 05:23:09;;;;;;;;;7.00;6.75;;;;;19.51;57.93;100853.75;4921388;28;45260;-72
2021/07/30 05:25:34;;;;;;;;;6.50;6.50;;;;;19.56;58.53;100854.28;4930921;28;45261;-73
2021/07/30 05:28:00;;;;;;;;;5.75;5.00;;;;;19.57;58.26;100861.34;4921842;28;45235;-72
2021/07/30 05:30:25;;;;;;;;;8.00;7.00;;;;;19.58;58.23;100855.06;4920136;28;46237;-74
2021/07/30 05:32:51;;;;;;;;;6.00;6.00;;;;;19.63;57.72;100860.06;4921082;28;45394;-75
2021/07/30 05:35:17;;;;;;;;;8.00;7.00;;;;;19.71;57.84;100854.16;4909992;28;45582;-74
2021/07/30 05:37:42;;;;;;;;;9.75;6.75;;;;;19.74;57.49;100848.63;4918527;28;45669;-74
2021/07/30 05:40:08;;;;;;;;;6.00;6.00;;;;;19.78;57.46;100850.97;4931101;28;45319;-74
2021/07/30 05:42:33;;;;;;;;;6.25;6.25;;;;;19.84;57.25;100854.16;4919346;28;45389;-74
2021/07/30 05:44:59;;;;;;;;;6.50;5.25;;;;;19.87;57.04;100848.63;4928659;28;45427;-76
2021/07/30 05:47:24;;;;;;;;;6.50;4.50;;;;;19.90;56.99;100838.56;4923691;28;45444;-74
2021/07/30 05:49:49;;;;;;;;;8.75;7.00;;;;;19.90;56.64;100841.25;4923403;28;49166;-74
2021/07/30 05:52:14;;;;;;;;;6.00;4.50;;;;;19.87;56.39;100837.94;4922266;28;46697;-73
2021/07/30 05:54:40;;;;;;;;;6.75;5.75;;;;;19.86;56.71;100841.56;4921625;28;45356;-74
2021/07/30 05:57:06;;;;;;;;;5.00;4.75;;;;;19.87;57.01;100843.28;4933978;28;45591;-74
2021/07/30 05:59:31;;;;;;;;;8.00;5.25;;;;;19.83;57.85;100841.81;4922880;28;45859;-74
2021/07/30 06:01:57;;;;;;;;;7.00;6.00;;;;;19.78;56.92;100834.09;4919452;28;46425;-74
2021/07/30 06:04:22;;;;;;;;;7.25;6.50;;;;;19.79;56.68;100834.03;4919362;28;45512;-74
2021/07/30 06:06:47;;;;;;;;;7.00;5.00;;;;;19.78;56.98;100832.31;4922137;28;45466;-74
2021/07/30 06:09:13;;;;;;;;;8.50;5.25;;;;;19.82;57.07;100835.63;4921104;28;47103;-74
2021/07/30 06:11:38;;;;;;;;;6.25;6.25;;;;;19.79;57.28;100835.81;4921342;28;45893;-74
2021/07/30 06:14:04;;;;;;;;;7.50;6.00;;;;;19.79;57.05;100833.16;4922350;28;45454;-74
2021/07/30 06:16:29;;;;;;;;;5.25;5.25;;;;;19.86;57.11;100839.75;4905215;28;45349;-74
2021/07/30 06:18:54;;;;;;;;;7.75;6.00;;;;;19.84;56.92;100825.69;4922356;28;45531;-74
2021/07/30 06:21:20;;;;;;;;;7.25;7.00;;;;;19.84;57.00;100827.50;4923880;28;46320;-74
2021/07/30 06:23:46;;;;;;;;;5.00;3.50;;;;;19.91;57.01;100831.44;4922387;28;45386;-74
2021/07/30 06:26:12;;;;;;;;;7.00;5.25;;;;;19.95;57.20;100827.56;4906151;28;45491;-74
2021/07/30 06:28:37;;;;;;;;;5.25;5.25;;;;;19.94;57.51;100822.34;4923077;28;45290;-74
2021/07/30 06:31:03;;;;;;;;;7.50;5.00;;;;;19.93;56.97;100832.16;4922782;28;46477;-74
2021/07/30 06:33:29;;;;;;;;;1.50;1.00;;;;;19.94;57.23;100825.88;4926376;28;45389;-73
2021/07/30 06:35:55;;;;;;;;;5.75;5.75;;;;;19.97;57.03;100819.47;4921450;28;45408;-74
2021/07/30 06:38:20;;;;;;;;;5.50;5.50;;;;;19.98;57.49;100816.69;4906312;28;46414;-73
2021/07/30 06:40:47;;;;;;;;;4.75;4.00;;;;;19.98;57.74;100814.03;4917517;28;46512;-74
2021/07/30 06:43:12;;;;;;;;;7.75;5.00;;;;;20.02;57.28;100831.53;4911272;28;45855;-74
2021/07/30 06:45:38;;;;;;;;;7.75;5.75;;;;;20.07;57.08;100825.84;4910320;28;45361;-74
2021/07/30 06:48:04;;;;;;;;;4.00;3.75;;;;;20.08;57.03;100813.34;4921047;28;45453;-74
2021/07/30 06:50:29;;;;;;;;;5.50;5.50;;;;;20.07;57.15;100809.00;4921845;28;46146;-74
2021/07/30 06:52:54;;;;;;;;;7.25;6.00;;;;;20.10;57.48;100812.28;4923339;28;45496;-74
2021/07/30 06:55:19;;;;;;;;;6.00;6.00;;;;;20.15;57.36;100808.47;4918718;28;45461;-74
2021/07/30 06:57:45;;;;;;;;;5.50;4.50;;;;;20.16;56.67;100811.00;4922985;28;45266;-74
2021/07/30 07:00:13;;;;;;;;;4.75;4.50;;;;;20.20;56.84;100814.34;4921878;28;45934;-74
2021/07/30 07:02:38;;;;;;;;;6.00;5.00;;;;;20.24;57.36;100808.66;4923126;28;45880;-74
2021/07/30 07:05:05;;;;;;;;;6.75;6.00;;;;;20.30;56.88;100819.81;4917476;28;45529;-75
2021/07/30 07:07:31;;;;;;;;;5.00;5.00;;;;;20.32;56.59;100825.91;4915611;28;45567;-75
2021/07/30 07:09:56;;;;;;;;;6.00;5.00;;;;;20.36;56.70;100816.72;4904996;28;46923;-74
2021/07/30 07:12:21;;;;;;;;;5.25;4.25;;;;;20.38;56.45;100819.25;4904296;28;45398;-75
2021/07/30 07:14:46;;;;;;;;;6.00;5.00;;;;;20.35;56.85;100821.19;4921418;28;45360;-74
2021/07/30 07:17:12;;;;;;;;;5.00;4.50;;;;;20.35;56.84;100812.31;4921514;28;45451;-74
2021/07/30 07:19:37;;;;;;;;;6.25;4.25;;;;;20.35;56.87;100812.31;4911009;28;45755;-74
2021/07/30 07:22:03;;;;;;;;;5.25;5.00;;;;;20.38;56.79;100816.59;4917313;28;45535;-74
2021/07/30 07:24:28;;;;;;;;;3.00;3.00;;;;;20.42;56.76;100818.91;4916511;28;45263;-74
2021/07/30 07:26:54;;;;;;;;;1.00;1.00;;;;;20.42;57.01;100818.91;4920682;28;45632;-75
2021/07/30 07:29:20;;;;;;;;;5.25;5.00;;;;;20.44;56.90;100813.47;4921645;28;45304;-74
2021/07/30 07:31:46;;;;;;;;;6.00;5.00;;;;;20.46;56.64;100812.41;4930138;28;45375;-74
2021/07/30 07:34:12;;;;;;;;;7.00;6.75;;;;;20.50;57.59;100814.81;4905967;28;45212;-74
2021/07/30 07:36:37;;;;;;;;;8.00;5.00;;;;;20.52;56.87;100821.75;4914782;28;45420;-74
2021/07/30 07:39:03;;;;;;;;;5.75;5.25;;;;;20.54;57.10;100821.66;4907138;28;45853;-75
2021/07/30 07:41:28;;;;;;;;;5.00;5.00;;;;;20.56;56.93;100809.03;4917255;28;45453;-74
2021/07/30 07:43:54;;;;;;;;;7.00;4.75;;;;;20.60;56.80;100812.31;4921371;28;45631;-74
2021/07/30 07:46:19;;;;;;;;;4.25;3.25;;;;;20.63;56.99;100804.09;4921461;28;45384;-74
2021/07/30 07:48:44;;;;;;;;;6.00;6.00;;;;;20.62;57.12;100813.91;4920836;28;45346;-74
2021/07/30 07:51:10;;;;;;;;;6.50;6.50;;;;;20.59;57.00;100808.81;4916559;28;45442;-75
2021/07/30 07:53:35;;;;;;;;;6.25;5.00;;;;;20.65;56.96;100807.47;4918208;28;45439;-74
2021/07/30 07:56:02;;;;;;;;;5.50;5.50;;;;;20.65;57.10;100815.50;4912266;28;47233;-74
2021/07/30 07:58:29;;;;;;;;;6.00;4.75;;;;;20.68;57.21;100808.13;4916449;28;47331;-74
2021/07/30 08:00:54;;;;;;;;;4.00;3.50;;;;;20.73;57.25;100806.91;4911987;28;45605;-74
2021/07/30 08:03:20;;;;;;;;;3.00;3.00;;;;;20.74;57.30;100797.94;4921222;28;45407;-73
2021/07/30 08:05:45;;;;;;;;;6.00;5.00;;;;;20.71;57.31;100791.00;4899940;28;46237;-75
2021/07/30 08:08:10;;;;;;;;;4.25;4.25;;;;;20.73;57.44;100793.56;4915364;28;45311;-74
2021/07/30 08:10:35;;;;;;;;;6.25;5.25;;;;;20.75;57.59;100791.63;4904177;28;45236;-75
2021/07/30 08:13:01;;;;;;;;;6.50;6.50;;;;;20.74;57.46;100796.09;4915496;28;45366;-74
2021/07/30 08:15:26;;;;;;;;;6.25;5.00;;;;;20.74;57.87;100789.94;4921302;28;45454;-74
2021/07/30 08:17:51;;;;;;;;;5.00;5.00;;;;;20.76;57.91;100785.31;4920570;28;45280;-75
2021/07/30 08:20:17;;;;;;;;;3.50;3.50;;;;;20.81;58.30;100791.16;4918903;28;45488;-74
2021/07/30 08:22:44;;;;;;;;;5.25;5.00;;;;;20.86;58.30;100786.34;4920740;28;45520;-74
2021/07/30 08:25:13;;;;;;;;;7.25;5.25;;;;;20.91;58.02;100792.16;4918955;28;45972;-75
2021/07/30 08:27:38;;;;;;;;;4.00;4.00;;;;;20.94;57.41;100790.22;4917457;28;47235;-74
2021/07/30 08:30:04;;;;;;;;;6.50;5.25;;;;;20.95;57.68;100781.22;4920748;28;45292;-74
2021/07/30 08:32:29;;;;;;;;;3.25;3.00;;;;;20.91;57.98;100786.81;4920787;28;45372;-74
2021/07/30 08:34:55;;;;;;;;;6.25;6.25;;;;;20.85;57.74;100781.94;4914643;28;45390;-74
2021/07/30 08:37:20;;;;;;;;;4.25;4.25;;;;;20.84;57.87;100788.25;4903799;28;48225;-74
2021/07/30 08:39:45;;;;;;;;;5.00;5.00;;;;;20.85;58.14;100786.44;4920738;28;45465;-73
2021/07/30 08:42:13;;;;;;;;;6.00;4.75;;;;;20.87;58.22;100790.69;4921001;28;45411;-74
2021/07/30 08:44:39;;;;;;;;;5.00;5.00;;;;;20.86;58.69;100789.00;4920470;28;45460;-74
2021/07/30 08:47:04;;;;;;;;;6.75;5.00;;;;;20.89;58.37;100786.06;4920293;28;48097;-74
2021/07/30 08:49:34;;;;;;;;;4.00;4.00;;;;;20.93;58.32;100786.72;4919443;28;45461;-74
2021/07/30 08:52:06;;;;;;;;;4.00;4.00;;;;;20.96;58.21;100786.47;4918411;28;45289;-73
2021/07/30 08:54:32;;;;;;;;;4.50;4.50;;;;;20.95;58.22;100786.56;4920479;28;45900;-75
2021/07/30 08:56:57;;;;;;;;;5.75;5.00;;;;;20.92;58.55;100793.88;4912470;28;45734;-76
2021/07/30 08:59:22;;;;;;;;;4.00;4.00;;;;;20.88;58.78;100784.38;4904475;28;45455;-76
2021/07/30 09:01:53;;;;;;;;;5.75;3.50;;;;;20.88;58.82;100776.38;4921049;28;45445;-75
2021/07/30 09:04:29;;;;;;;;;5.50;4.25;;;;;20.91;58.71;100778.78;4915483;28;45707;-76
2021/07/30 09:06:55;;;;;;;;;5.00;5.00;;;;;20.96;59.05;100788.28;4912575;28;47156;-76
2021/07/30 09:09:21;;;;;;;;;5.75;4.25;;;;;20.93;58.92;100784.03;4914387;28;45528;-75
2021/07/30 09:11:53;;;;;;;;;3.25;3.25;;;;;20.94;58.87;100787.56;4915030;28;45445;-75
2021/07/30 09:14:34;;;;;;;;;4.75;4.50;;;;;20.94;61.40;100780.38;4900904;28;45412;-75
2021/07/30 09:17:00;;;;;;;;;5.00;5.00;;;;;20.95;59.16;100778.56;4909909;28;47109;-75
2021/07/30 09:19:25;;;;;;;;;6.00;4.00;;;;;20.98;59.60;100779.19;4904113;28;45796;-75
2021/07/30 09:22:03;;;;;;;;;5.25;4.75;;;;;21.04;59.18;100772.53;4923134;28;45878;-74
2021/07/30 09:24:34;;;;;;;;;5.25;3.00;;;;;21.08;59.10;100775.84;4921712;28;47679;-75
2021/07/30 09:27:00;;;;;;;;;4.25;4.00;;;;;21.06;59.05;100775.09;4926508;28;46018;-74
2021/07/30 09:29:28;;;;;;;;;3.50;3.50;;;;;21.05;59.63;100784.94;4919784;28;45382;-75
2021/07/30 09:31:58;;;;;;;;;4.50;3.00;;;;;21.05;59.66;100782.25;4922436;28;45445;-77
2021/07/30 09:34:24;;;;;;;;;5.00;3.75;;;;;21.05;59.90;100784.94;4922259;28;46402;-77
2021/07/30 09:36:58;;;;;;;;;4.50;4.50;;;;;21.05;59.72;100776.91;4924701;28;45382;-77
2021/07/30 09:39:32;;;;;;;;;3.00;3.00;;;;;21.05;59.47;100784.06;4924563;28;45845;-77
2021/07/30 09:42:04;;;;;;;;;6.00;4.25;;;;;21.00;61.22;100781.72;4926942;28;45699;-77
2021/07/30 09:44:31;;;;;;;;;6.75;4.00;;;;;21.02;59.76;100786.03;4929093;28;46071;-77
2021/07/30 09:47:06;;;;;;;;;5.75;5.50;;;;;21.06;60.13;100792.00;4927953;28;46490;-77
2021/07/30 09:49:45;;;;;;;;;5.25;3.00;;;;;21.10;60.77;100766.72;4921012;28;45551;-77
2021/07/30 09:52:16;;;;;;;;;6.00;4.00;;;;;21.13;59.85;100771.84;4923829;28;45354;-76
2021/07/30 09:54:49;;;;;;;;;4.25;4.25;;;;;21.13;60.31;100774.50;4924341;28;45650;-76
2021/07/30 09:57:17;;;;;;;;;5.00;3.25;;;;;21.08;61.02;100779.38;4935539;28;45504;-76
2021/07/30 09:59:44;;;;;;;;;3.00;3.00;;;;;21.08;60.77;100773.16;4906476;28;45384;-76
2021/07/30 10:02:20;;;;;;;;;3.25;3.25;;;;;21.12;60.72;100783.50;4934364;28;45213;-76
2021/07/30 10:04:50;;;;;;;;;5.75;4.75;;;;;21.18;60.91;100773.28;4917736;28;47316;-75
2021/07/30 10:07:23;;;;;;;;;2.50;2.50;;;;;21.22;60.38;100764.91;4924391;28;45677;-75
2021/07/30 10:09:55;;;;;;;;;6.75;5.25;;;;;21.26;60.40;100770.84;4924061;28;45452;-76
2021/07/30 10:12:21;;;;;;;;;5.00;5.00;;;;;21.32;60.34;100764.19;4923644;28;45378;-76
2021/07/30 10:14:47;;;;;;;;;3.75;3.75;;;;;21.30;60.18;100766.13;4930590;28;45494;-75
2021/07/30 10:17:14;;;;;;;;;4.00;4.00;;;;;21.31;60.55;100774.03;4922898;28;45487;-76
2021/07/30 10:19:41;;;;;;;;;6.50;5.25;;;;;21.34;59.75;100765.78;4924039;28;45363;-76
2021/07/30 10:22:07;;;;;;;;;2.50;2.50;;;;;21.38;60.20;100773.56;4924305;28;45330;-76
2021/07/30 10:24:42;;;;;;;;;3.50;3.50;;;;;21.40;59.52;100760.91;4924145;28;45339;-75
2021/07/30 10:27:10;;;;;;;;;5.00;4.25;;;;;21.44;59.49;100762.34;4929845;28;46837;-75
2021/07/30 10:30:14;;;;;;;;;3.25;3.25;;;;;21.50;59.50;100756.53;4916254;28;45268;-75
2021/07/30 10:32:48;;;;;;;;;3.00;3.00;;;;;21.52;59.43;100754.59;4922614;28;45302;-75
2021/07/30 10:35:19;;;;;;;;;3.75;3.75;;;;;21.56;60.03;100750.69;4923714;28;45234;-75
2021/07/30 10:37:45;;;;;;;;;3.00;3.00;;;;;21.64;59.35;100736.72;4924012;28;46144;-76
2021/07/30 10:40:19;;;;;;;;;4.00;4.00;;;;;21.66;58.66;100733.91;4922104;28;45272;-76
2021/07/30 10:43:03;;;;;;;;;4.00;4.00;;;;;21.72;58.92;100737.91;4923922;28;45286;-76
2021/07/30 10:45:30;;;;;;;;;4.25;4.25;;;;;21.78;58.64;100729.41;4927349;28;45452;-76
2021/07/30 10:48:13;;;;;;;;;6.00;4.25;;;;;21.84;58.65;100730.72;4930144;28;46815;-77
2021/07/30 10:50:45;;;;;;;;;5.25;5.25;;;;;21.90;58.04;100727.59;4913477;28;45487;-75
2021/07/30 10:53:40;;;;;;;;;3.00;3.00;;;;;21.95;57.86;100732.56;4923798;28;45276;-76
2021/07/30 10:56:17;;;;;;;;;3.25;3.25;;;;;22.03;58.07;100741.63;4914845;28;45254;-76
2021/07/30 10:58:45;;;;;;;;;2.25;2.25;;;;;22.15;57.17;100746.94;4922586;28;46558;-76
2021/07/30 11:01:14;;;;;;;;;3.25;3.25;;;;;22.20;56.95;100741.25;4929140;28;45575;-76
2021/07/30 11:04:02;;;;;;;;;2.50;2.00;;;;;22.27;56.46;100742.44;4927057;28;45238;-76
2021/07/30 11:06:52;;;;;;;;;3.75;2.25;;;;;22.31;56.16;100743.84;4901717;28;45510;-75
2021/07/30 11:09:22;;;;;;;;;4.50;4.00;;;;;22.39;56.40;100740.53;4903556;28;46212;-75
2021/07/30 11:11:55;;;;;;;;;4.00;3.00;;;;;22.48;56.53;100744.25;4932848;28;45272;-76
2021/07/30 11:14:27;;;;;;;;;5.00;4.25;;;;;22.49;55.92;100737.94;4924027;28;45509;-76
2021/07/30 11:16:56;;;;;;;;;2.25;2.25;;;;;22.46;55.37;100731.03;4922023;28;45465;-76
2021/07/30 11:19:28;;;;;;;;;2.00;2.00;;;;;22.47;54.47;100732.69;4921556;28;48230;-76
2021/07/30 11:21:56;;;;;;;;;2.25;2.00;;;;;22.44;54.80;100732.97;4923119;28;45291;-76
2021/07/30 11:24:21;;;;;;;;;1.25;1.25;;;;;22.43;54.35;100733.94;4923142;28;45240;-76
2021/07/30 11:26:47;;;;;;;;;2.00;2.00;;;;;22.41;53.21;100737.72;4921822;28;45240;-76